sensor_id;sensor_type;location;lat;lon;timestamp;pressure;altitude;pressure_sealevel;temperature;humidity
63287;BME280;49410;55.708;37.522;2023-03-01T00:01:18;98616.72;;;-5.08;nan
63287;BME280;49410;55.708;37.522;2023-03-01T00:03:43;98610.06;;;-5.15;nan
63287;BME280;49410;55.708;37.522;2023-03-01T00:06:09;98609.38;;;-5.19;nan
63287;BME280;49410;55.708;37.522;2023-03-01T00:08:35;98618.25;;;-5.18;nan
63287;BME280;49410;55.708;37.522;2023-03-01T00:11:10;98607.28;;;-5.28;nan
63287;BME280;49410;55.708;37.522;2023-03-01T00:13:36;98604.34;;;-5.23;nan
63287;BME280;49410;55.708;37.522;2023-03-01T00:16:02;98615.09;;;-5.25;nan
63287;BME280;49410;55.708;37.522;2023-03-01T00:18:28;98607.50;;;-5.31;nan
63287;BME280;49410;55.708;37.522;2023-03-01T00:20:53;98604.25;;;-5.22;nan
63287;BME280;49410;55.708;37.522;2023-03-01T00:23:20;98596.06;;;-5.33;nan
63287;BME280;49410;55.708;37.522;2023-03-01T00:25:46;98600.38;;;-5.45;nan
63287;BME280;49410;55.708;37.522;2023-03-01T00:28:11;98603.41;;;-5.51;nan
63287;BME280;49410;55.708;37.522;2023-03-01T00:30:37;98602.84;;;-5.42;nan
63287;BME280;49410;55.708;37.522;2023-03-01T00:33:03;98583.50;;;-5.46;nan
63287;BME280;49410;55.708;37.522;2023-03-01T00:35:28;98596.38;;;-5.38;nan
63287;BME280;49410;55.708;37.522;2023-03-01T00:37:54;98595.22;;;-5.48;nan
63287;BME280;49410;55.708;37.522;2023-03-01T00:40:29;98603.59;;;-5.40;nan
63287;BME280;49410;55.708;37.522;2023-03-01T00:42:55;98593.34;;;-5.46;nan
63287;BME280;49410;55.708;37.522;2023-03-01T00:45:22;98599.31;;;-5.42;nan
63287;BME280;49410;55.708;37.522;2023-03-01T00:47:49;98582.56;;;-5.59;nan
63287;BME280;49410;55.708;37.522;2023-03-01T00:50:15;98588.88;;;-5.60;nan
63287;BME280;49410;55.708;37.522;2023-03-01T00:52:41;98585.91;;;-5.70;nan
63287;BME280;49410;55.708;37.522;2023-03-01T00:55:07;98590.38;;;-5.56;nan
63287;BME280;49410;55.708;37.522;2023-03-01T00:57:32;98594.66;;;-5.53;nan
63287;BME280;49410;55.708;37.522;2023-03-01T00:59:59;98589.50;;;-5.71;nan
63287;BME280;49410;55.708;37.522;2023-03-01T01:02:24;98584.09;;;-5.55;nan
63287;BME280;49410;55.708;37.522;2023-03-01T01:04:50;98558.31;;;-5.69;nan
63287;BME280;49410;55.708;37.522;2023-03-01T01:07:15;98586.19;;;-5.60;nan
63287;BME280;49410;55.708;37.522;2023-03-01T01:09:41;98575.13;;;-5.68;nan
63287;BME280;49410;55.708;37.522;2023-03-01T01:12:07;98580.59;;;-5.55;nan
63287;BME280;49410;55.708;37.522;2023-03-01T01:14:34;98582.94;;;-5.65;nan
63287;BME280;49410;55.708;37.522;2023-03-01T01:16:59;98602.72;;;-5.69;nan
63287;BME280;49410;55.708;37.522;2023-03-01T01:19:26;98592.47;;;-5.61;nan
63287;BME280;49410;55.708;37.522;2023-03-01T01:21:52;98596.56;;;-5.55;nan
63287;BME280;49410;55.708;37.522;2023-03-01T01:24:18;98598.38;;;-5.70;nan
63287;BME280;49410;55.708;37.522;2023-03-01T01:26:44;98585.50;;;-5.78;nan
63287;BME280;49410;55.708;37.522;2023-03-01T01:29:10;98593.22;;;-5.59;nan
63287;BME280;49410;55.708;37.522;2023-03-01T01:31:37;98604.16;;;-5.64;nan
63287;BME280;49410;55.708;37.522;2023-03-01T01:34:05;98593.59;;;-5.80;nan
63287;BME280;49410;55.708;37.522;2023-03-01T01:36:31;98586.16;;;-5.89;nan
63287;BME280;49410;55.708;37.522;2023-03-01T01:38:57;98600.91;;;-5.98;nan
63287;BME280;49410;55.708;37.522;2023-03-01T01:41:24;98603.56;;;-5.83;nan
63287;BME280;49410;55.708;37.522;2023-03-01T01:44:12;98602.63;;;-5.82;nan
63287;BME280;49410;55.708;37.522;2023-03-01T01:46:47;98586.75;;;-5.84;nan
63287;BME280;49410;55.708;37.522;2023-03-01T01:52:29;98609.94;;;-5.86;nan
63287;BME280;49410;55.708;37.522;2023-03-01T01:55:01;98609.66;;;-5.81;nan
63287;BME280;49410;55.708;37.522;2023-03-01T01:57:39;98605.94;;;-5.79;nan
63287;BME280;49410;55.708;37.522;2023-03-01T02:00:08;98599.56;;;-5.90;nan
63287;BME280;49410;55.708;37.522;2023-03-01T02:02:34;98601.56;;;-5.80;nan
63287;BME280;49410;55.708;37.522;2023-03-01T02:05:09;98589.19;;;-5.95;nan
63287;BME280;49410;55.708;37.522;2023-03-01T02:07:38;98600.25;;;-5.87;nan
63287;BME280;49410;55.708;37.522;2023-03-01T02:10:06;98580.47;;;-5.83;nan
63287;BME280;49410;55.708;37.522;2023-03-01T02:12:32;98587.31;;;-5.79;nan
63287;BME280;49410;55.708;37.522;2023-03-01T02:14:57;98589.78;;;-5.75;nan
63287;BME280;49410;55.708;37.522;2023-03-01T02:17:23;98577.59;;;-5.94;nan
63287;BME280;49410;55.708;37.522;2023-03-01T02:22:31;98583.41;;;-6.02;nan
63287;BME280;49410;55.708;37.522;2023-03-01T02:25:01;98608.00;;;-5.98;nan
63287;BME280;49410;55.708;37.522;2023-03-01T02:27:56;98612.81;;;-6.03;nan
63287;BME280;49410;55.708;37.522;2023-03-01T02:30:24;98592.13;;;-6.14;nan
63287;BME280;49410;55.708;37.522;2023-03-01T02:32:52;98590.84;;;-6.07;nan
63287;BME280;49410;55.708;37.522;2023-03-01T02:35:20;98607.47;;;-6.03;nan
63287;BME280;49410;55.708;37.522;2023-03-01T02:37:47;98605.28;;;-6.11;nan
63287;BME280;49410;55.708;37.522;2023-03-01T02:40:18;98606.72;;;-6.05;nan
63287;BME280;49410;55.708;37.522;2023-03-01T02:42:50;98597.59;;;-6.32;nan
63287;BME280;49410;55.708;37.522;2023-03-01T02:45:17;98592.78;;;-6.25;nan
63287;BME280;49410;55.708;37.522;2023-03-01T02:47:43;98603.06;;;-6.19;nan
63287;BME280;49410;55.708;37.522;2023-03-01T02:50:34;98601.16;;;-6.17;nan
63287;BME280;49410;55.708;37.522;2023-03-01T02:53:22;98590.41;;;-6.30;nan
63287;BME280;49410;55.708;37.522;2023-03-01T02:55:50;98608.41;;;-6.35;nan
63287;BME280;49410;55.708;37.522;2023-03-01T02:58:16;98600.44;;;-6.35;nan
63287;BME280;49410;55.708;37.522;2023-03-01T03:00:42;98607.72;;;-6.22;nan
63287;BME280;49410;55.708;37.522;2023-03-01T03:03:14;98617.78;;;-6.28;nan
63287;BME280;49410;55.708;37.522;2023-03-01T03:05:40;98623.69;;;-6.22;nan
63287;BME280;49410;55.708;37.522;2023-03-01T03:08:05;98609.03;;;-6.30;nan
63287;BME280;49410;55.708;37.522;2023-03-01T03:10:35;98616.75;;;-6.25;nan
63287;BME280;49410;55.708;37.522;2023-03-01T03:13:04;98620.50;;;-6.29;nan
63287;BME280;49410;55.708;37.522;2023-03-01T03:15:31;98616.66;;;-6.40;nan
63287;BME280;49410;55.708;37.522;2023-03-01T03:18:02;98619.25;;;-6.38;nan
63287;BME280;49410;55.708;37.522;2023-03-01T03:20:28;98614.44;;;-6.31;nan
63287;BME280;49410;55.708;37.522;2023-03-01T03:22:55;98626.22;;;-6.35;nan
63287;BME280;49410;55.708;37.522;2023-03-01T03:25:21;98622.69;;;-6.36;nan
63287;BME280;49410;55.708;37.522;2023-03-01T03:27:49;98619.06;;;-6.35;nan
63287;BME280;49410;55.708;37.522;2023-03-01T03:30:23;98604.00;;;-6.50;nan
63287;BME280;49410;55.708;37.522;2023-03-01T03:32:50;98632.06;;;-6.45;nan
63287;BME280;49410;55.708;37.522;2023-03-01T03:35:27;98629.56;;;-6.48;nan
63287;BME280;49410;55.708;37.522;2023-03-01T03:37:57;98626.66;;;-6.59;nan
63287;BME280;49410;55.708;37.522;2023-03-01T03:40:34;98616.28;;;-6.64;nan
63287;BME280;49410;55.708;37.522;2023-03-01T03:43:01;98613.22;;;-6.72;nan
63287;BME280;49410;55.708;37.522;2023-03-01T03:45:27;98625.66;;;-6.73;nan
63287;BME280;49410;55.708;37.522;2023-03-01T03:47:52;98633.91;;;-6.61;nan
63287;BME280;49410;55.708;37.522;2023-03-01T03:50:18;98614.84;;;-6.86;nan
63287;BME280;49410;55.708;37.522;2023-03-01T03:52:44;98633.13;;;-6.63;nan
63287;BME280;49410;55.708;37.522;2023-03-01T03:55:11;98641.94;;;-6.63;nan
63287;BME280;49410;55.708;37.522;2023-03-01T03:57:38;98631.66;;;-6.53;nan
63287;BME280;49410;55.708;37.522;2023-03-01T04:00:05;98624.78;;;-6.73;nan
63287;BME280;49410;55.708;37.522;2023-03-01T04:02:39;98625.75;;;-6.74;nan
63287;BME280;49410;55.708;37.522;2023-03-01T04:05:05;98640.75;;;-6.73;nan
63287;BME280;49410;55.708;37.522;2023-03-01T04:07:30;98635.84;;;-6.65;nan
63287;BME280;49410;55.708;37.522;2023-03-01T04:09:56;98626.78;;;-6.77;nan
63287;BME280;49410;55.708;37.522;2023-03-01T04:12:21;98647.63;;;-6.85;nan
63287;BME280;49410;55.708;37.522;2023-03-01T04:14:48;98630.38;;;-6.78;nan
63287;BME280;49410;55.708;37.522;2023-03-01T04:17:14;98621.88;;;-6.84;nan
63287;BME280;49410;55.708;37.522;2023-03-01T04:19:39;98652.69;;;-6.64;nan
63287;BME280;49410;55.708;37.522;2023-03-01T04:22:05;98641.00;;;-6.78;nan
63287;BME280;49410;55.708;37.522;2023-03-01T04:24:37;98647.63;;;-6.69;nan
63287;BME280;49410;55.708;37.522;2023-03-01T04:27:03;98650.81;;;-6.62;nan
63287;BME280;49410;55.708;37.522;2023-03-01T04:29:28;98665.22;;;-6.82;nan
63287;BME280;49410;55.708;37.522;2023-03-01T04:31:54;98644.97;;;-6.85;nan
63287;BME280;49410;55.708;37.522;2023-03-01T04:34:20;98658.59;;;-6.75;nan
63287;BME280;49410;55.708;37.522;2023-03-01T04:36:45;98662.38;;;-6.79;nan
63287;BME280;49410;55.708;37.522;2023-03-01T04:39:11;98665.56;;;-6.73;nan
63287;BME280;49410;55.708;37.522;2023-03-01T04:41:40;98653.72;;;-6.67;nan
63287;BME280;49410;55.708;37.522;2023-03-01T04:44:06;98660.03;;;-6.53;nan
63287;BME280;49410;55.708;37.522;2023-03-01T04:46:32;98654.81;;;-6.55;nan
63287;BME280;49410;55.708;37.522;2023-03-01T04:48:57;98653.19;;;-6.58;nan
63287;BME280;49410;55.708;37.522;2023-03-01T04:51:23;98663.75;;;-6.56;nan
63287;BME280;49410;55.708;37.522;2023-03-01T04:53:49;98645.19;;;-6.42;nan
63287;BME280;49410;55.708;37.522;2023-03-01T04:56:15;98619.63;;;-6.60;nan
63287;BME280;49410;55.708;37.522;2023-03-01T04:58:43;98654.38;;;-6.31;nan
63287;BME280;49410;55.708;37.522;2023-03-01T05:01:11;98664.63;;;-6.09;nan
63287;BME280;49410;55.708;37.522;2023-03-01T05:03:41;98664.78;;;-6.12;nan
63287;BME280;49410;55.708;37.522;2023-03-01T05:06:07;98665.13;;;-6.02;nan
63287;BME280;49410;55.708;37.522;2023-03-01T05:08:33;98664.44;;;-5.92;nan
63287;BME280;49410;55.708;37.522;2023-03-01T05:10:59;98674.09;;;-5.74;nan
63287;BME280;49410;55.708;37.522;2023-03-01T05:13:24;98669.88;;;-5.79;nan
63287;BME280;49410;55.708;37.522;2023-03-01T05:16:00;98677.41;;;-5.71;nan
63287;BME280;49410;55.708;37.522;2023-03-01T05:18:27;98667.59;;;-5.85;nan
63287;BME280;49410;55.708;37.522;2023-03-01T05:20:54;98649.78;;;-5.84;nan
63287;BME280;49410;55.708;37.522;2023-03-01T05:23:22;98693.91;;;-5.64;nan
63287;BME280;49410;55.708;37.522;2023-03-01T05:25:48;98677.31;;;-5.69;nan
63287;BME280;49410;55.708;37.522;2023-03-01T05:28:14;98679.72;;;-5.65;nan
63287;BME280;49410;55.708;37.522;2023-03-01T05:30:40;98694.00;;;-5.51;nan
63287;BME280;49410;55.708;37.522;2023-03-01T05:33:06;98679.19;;;-5.55;nan
63287;BME280;49410;55.708;37.522;2023-03-01T05:35:39;98688.19;;;-5.58;nan
63287;BME280;49410;55.708;37.522;2023-03-01T05:38:05;98693.34;;;-5.55;nan
63287;BME280;49410;55.708;37.522;2023-03-01T05:40:33;98704.22;;;-5.43;nan
63287;BME280;49410;55.708;37.522;2023-03-01T05:42:59;98702.66;;;-5.48;nan
63287;BME280;49410;55.708;37.522;2023-03-01T05:45:26;98706.88;;;-5.43;nan
63287;BME280;49410;55.708;37.522;2023-03-01T05:47:52;98707.59;;;-5.56;nan
63287;BME280;49410;55.708;37.522;2023-03-01T05:50:21;98714.00;;;-5.44;nan
63287;BME280;49410;55.708;37.522;2023-03-01T05:52:51;98716.31;;;-5.38;nan
63287;BME280;49410;55.708;37.522;2023-03-01T05:55:20;98710.59;;;-5.46;nan
63287;BME280;49410;55.708;37.522;2023-03-01T05:57:46;98725.25;;;-5.39;nan
63287;BME280;49410;55.708;37.522;2023-03-01T06:00:13;98715.72;;;-5.57;nan
63287;BME280;49410;55.708;37.522;2023-03-01T06:02:40;98725.97;;;-5.51;nan
63287;BME280;49410;55.708;37.522;2023-03-01T06:05:06;98719.59;;;-5.49;nan
63287;BME280;49410;55.708;37.522;2023-03-01T06:07:32;98727.41;;;-5.60;nan
63287;BME280;49410;55.708;37.522;2023-03-01T06:09:57;98720.66;;;-5.51;nan
63287;BME280;49410;55.708;37.522;2023-03-01T06:12:23;98717.44;;;-5.42;nan
63287;BME280;49410;55.708;37.522;2023-03-01T06:14:48;98728.97;;;-5.41;nan
63287;BME280;49410;55.708;37.522;2023-03-01T06:17:14;98729.56;;;-5.22;nan
63287;BME280;49410;55.708;37.522;2023-03-01T06:19:39;98724.03;;;-5.19;nan
63287;BME280;49410;55.708;37.522;2023-03-01T06:22:05;98743.47;;;-5.02;nan
63287;BME280;49410;55.708;37.522;2023-03-01T06:24:30;98725.28;;;-5.10;nan
63287;BME280;49410;55.708;37.522;2023-03-01T06:26:56;98743.16;;;-5.12;nan
63287;BME280;49410;55.708;37.522;2023-03-01T06:29:22;98745.19;;;-4.87;nan
63287;BME280;49410;55.708;37.522;2023-03-01T06:31:48;98741.75;;;-4.60;nan
63287;BME280;49410;55.708;37.522;2023-03-01T06:34:14;98720.41;;;-4.60;nan
63287;BME280;49410;55.708;37.522;2023-03-01T06:36:40;98739.41;;;-4.37;nan
63287;BME280;49410;55.708;37.522;2023-03-01T06:39:06;98741.56;;;-4.15;nan
63287;BME280;49410;55.708;37.522;2023-03-01T06:41:32;98719.69;;;-4.07;nan
63287;BME280;49410;55.708;37.522;2023-03-01T06:43:58;98736.16;;;-4.00;nan
63287;BME280;49410;55.708;37.522;2023-03-01T06:46:24;98737.78;;;-3.98;nan
63287;BME280;49410;55.708;37.522;2023-03-01T06:48:49;98734.38;;;-3.87;nan
63287;BME280;49410;55.708;37.522;2023-03-01T06:51:14;98734.16;;;-3.56;nan
63287;BME280;49410;55.708;37.522;2023-03-01T06:56:58;98727.59;;;-3.78;nan
63287;BME280;49410;55.708;37.522;2023-03-01T06:59:24;98735.44;;;-3.62;nan
63287;BME280;49410;55.708;37.522;2023-03-01T07:01:49;98740.94;;;-3.78;nan
63287;BME280;49410;55.708;37.522;2023-03-01T07:04:14;98750.97;;;-3.41;nan
63287;BME280;49410;55.708;37.522;2023-03-01T07:06:40;98736.88;;;-3.18;nan
63287;BME280;49410;55.708;37.522;2023-03-01T07:09:05;98752.28;;;-3.21;nan
63287;BME280;49410;55.708;37.522;2023-03-01T07:11:32;98756.66;;;-3.07;nan
63287;BME280;49410;55.708;37.522;2023-03-01T07:13:58;98745.63;;;-2.90;nan
63287;BME280;49410;55.708;37.522;2023-03-01T07:16:25;98754.19;;;-3.23;nan
63287;BME280;49410;55.708;37.522;2023-03-01T07:18:50;98748.69;;;-3.48;nan
63287;BME280;49410;55.708;37.522;2023-03-01T07:21:16;98752.91;;;-3.44;nan
63287;BME280;49410;55.708;37.522;2023-03-01T07:23:41;98770.47;;;-3.26;nan
63287;BME280;49410;55.708;37.522;2023-03-01T07:26:07;98767.38;;;-3.20;nan
63287;BME280;49410;55.708;37.522;2023-03-01T07:28:32;98768.22;;;-3.20;nan
63287;BME280;49410;55.708;37.522;2023-03-01T07:31:05;98771.25;;;-3.12;nan
63287;BME280;49410;55.708;37.522;2023-03-01T07:33:31;98776.78;;;-2.63;nan
63287;BME280;49410;55.708;37.522;2023-03-01T07:35:59;98764.16;;;-2.74;nan
63287;BME280;49410;55.708;37.522;2023-03-01T07:38:26;98772.28;;;-2.50;nan
63287;BME280;49410;55.708;37.522;2023-03-01T07:40:52;98767.47;;;-2.57;nan
63287;BME280;49410;55.708;37.522;2023-03-01T07:43:18;98774.06;;;-2.24;nan
63287;BME280;49410;55.708;37.522;2023-03-01T07:45:44;98767.22;;;-2.04;nan
63287;BME280;49410;55.708;37.522;2023-03-01T07:48:09;98789.25;;;-2.25;nan
63287;BME280;49410;55.708;37.522;2023-03-01T07:50:35;98787.16;;;-2.45;nan
63287;BME280;49410;55.708;37.522;2023-03-01T07:53:03;98791.13;;;-2.51;nan
63287;BME280;49410;55.708;37.522;2023-03-01T07:55:29;98779.00;;;-2.31;nan
63287;BME280;49410;55.708;37.522;2023-03-01T07:57:55;98794.25;;;-2.07;nan
63287;BME280;49410;55.708;37.522;2023-03-01T08:00:21;98792.44;;;-2.07;nan
63287;BME280;49410;55.708;37.522;2023-03-01T08:02:46;98793.28;;;-1.82;nan
63287;BME280;49410;55.708;37.522;2023-03-01T08:05:11;98772.66;;;-1.93;nan
63287;BME280;49410;55.708;37.522;2023-03-01T08:07:37;98785.38;;;-1.59;nan
63287;BME280;49410;55.708;37.522;2023-03-01T08:10:03;98784.13;;;-1.66;nan
63287;BME280;49410;55.708;37.522;2023-03-01T08:12:28;98785.84;;;-1.90;nan
63287;BME280;49410;55.708;37.522;2023-03-01T08:14:54;98786.69;;;-1.65;nan
63287;BME280;49410;55.708;37.522;2023-03-01T08:17:20;98781.31;;;-1.89;nan
63287;BME280;49410;55.708;37.522;2023-03-01T08:19:45;98793.81;;;-1.77;nan
63287;BME280;49410;55.708;37.522;2023-03-01T08:22:11;98783.59;;;-1.72;nan
63287;BME280;49410;55.708;37.522;2023-03-01T08:24:36;98776.97;;;-1.54;nan
63287;BME280;49410;55.708;37.522;2023-03-01T08:27:02;98783.59;;;-1.47;nan
63287;BME280;49410;55.708;37.522;2023-03-01T08:29:30;98778.78;;;-1.31;nan
63287;BME280;49410;55.708;37.522;2023-03-01T08:31:56;98787.06;;;-1.34;nan
63287;BME280;49410;55.708;37.522;2023-03-01T08:34:21;98792.50;;;-1.11;nan
63287;BME280;49410;55.708;37.522;2023-03-01T08:36:47;98794.72;;;-1.41;nan
63287;BME280;49410;55.708;37.522;2023-03-01T08:39:15;98788.41;;;-1.64;nan
63287;BME280;49410;55.708;37.522;2023-03-01T08:41:41;98789.56;;;-1.79;nan
63287;BME280;49410;55.708;37.522;2023-03-01T08:44:08;98775.22;;;-2.28;nan
63287;BME280;49410;55.708;37.522;2023-03-01T08:46:40;98803.63;;;-2.26;nan
63287;BME280;49410;55.708;37.522;2023-03-01T08:49:08;98806.81;;;-1.83;nan
63287;BME280;49410;55.708;37.522;2023-03-01T08:51:35;98808.19;;;-2.02;nan
63287;BME280;49410;55.708;37.522;2023-03-01T08:54:19;98812.25;;;-1.72;nan
63287;BME280;49410;55.708;37.522;2023-03-01T08:56:45;98814.38;;;-1.89;nan
63287;BME280;49410;55.708;37.522;2023-03-01T08:59:12;98816.72;;;-1.60;nan
63287;BME280;49410;55.708;37.522;2023-03-01T09:01:38;98807.97;;;-1.75;nan
63287;BME280;49410;55.708;37.522;2023-03-01T09:04:04;98810.88;;;-1.53;nan
63287;BME280;49410;55.708;37.522;2023-03-01T09:06:33;98794.63;;;-1.63;nan
63287;BME280;49410;55.708;37.522;2023-03-01T09:08:59;98816.03;;;-1.50;nan
63287;BME280;49410;55.708;37.522;2023-03-01T09:11:25;98801.59;;;-1.61;nan
63287;BME280;49410;55.708;37.522;2023-03-01T09:13:51;98804.81;;;-1.44;nan
63287;BME280;49410;55.708;37.522;2023-03-01T09:16:19;98802.28;;;-1.46;nan
63287;BME280;49410;55.708;37.522;2023-03-01T09:18:48;98805.03;;;-1.47;nan
63287;BME280;49410;55.708;37.522;2023-03-01T09:21:15;98815.34;;;-1.65;nan
63287;BME280;49410;55.708;37.522;2023-03-01T09:23:43;98809.31;;;-1.93;nan
63287;BME280;49410;55.708;37.522;2023-03-01T09:26:13;98798.44;;;-1.79;nan
63287;BME280;49410;55.708;37.522;2023-03-01T09:28:42;98800.19;;;-2.15;nan
63287;BME280;49410;55.708;37.522;2023-03-01T09:31:08;98812.00;;;-1.93;nan
63287;BME280;49410;55.708;37.522;2023-03-01T09:33:34;98811.44;;;-1.61;nan
63287;BME280;49410;55.708;37.522;2023-03-01T09:36:04;98801.34;;;-1.58;nan
63287;BME280;49410;55.708;37.522;2023-03-01T09:38:31;98809.56;;;-1.72;nan
63287;BME280;49410;55.708;37.522;2023-03-01T09:40:56;98795.69;;;-1.66;nan
63287;BME280;49410;55.708;37.522;2023-03-01T09:43:42;98815.97;;;-1.62;nan
63287;BME280;49410;55.708;37.522;2023-03-01T09:46:11;98813.41;;;-1.39;nan
63287;BME280;49410;55.708;37.522;2023-03-01T09:48:49;98813.78;;;-1.32;nan
63287;BME280;49410;55.708;37.522;2023-03-01T09:51:27;98794.75;;;-1.29;nan
63287;BME280;49410;55.708;37.522;2023-03-01T09:53:55;98798.81;;;-1.23;nan
63287;BME280;49410;55.708;37.522;2023-03-01T09:56:52;98801.22;;;-1.32;nan
63287;BME280;49410;55.708;37.522;2023-03-01T09:59:30;98822.72;;;-1.20;nan
63287;BME280;49410;55.708;37.522;2023-03-01T10:05:09;98833.66;;;-1.59;nan
63287;BME280;49410;55.708;37.522;2023-03-01T10:07:51;98831.78;;;-1.46;nan
63287;BME280;49410;55.708;37.522;2023-03-01T10:10:31;98830.19;;;-1.85;nan
63287;BME280;49410;55.708;37.522;2023-03-01T10:13:01;98824.94;;;-2.24;nan
63287;BME280;49410;55.708;37.522;2023-03-01T10:15:43;98841.09;;;-2.13;nan
63287;BME280;49410;55.708;37.522;2023-03-01T10:18:21;98827.59;;;-2.11;nan
63287;BME280;49410;55.708;37.522;2023-03-01T10:21:14;98844.13;;;-2.30;nan
63287;BME280;49410;55.708;37.522;2023-03-01T10:23:38;98842.97;;;-2.52;nan
63287;BME280;49410;55.708;37.522;2023-03-01T10:31:02;98842.19;;;-2.28;nan
63287;BME280;49410;55.708;37.522;2023-03-01T10:33:33;98844.75;;;-2.14;nan
63287;BME280;49410;55.708;37.522;2023-03-01T10:36:01;98847.00;;;-2.08;nan
63287;BME280;49410;55.708;37.522;2023-03-01T10:38:30;98842.69;;;-1.97;nan
63287;BME280;49410;55.708;37.522;2023-03-01T10:40:59;98831.16;;;-1.74;nan
63287;BME280;49410;55.708;37.522;2023-03-01T10:49:22;98828.13;;;-1.45;nan
63287;BME280;49410;55.708;37.522;2023-03-01T10:51:50;98819.81;;;-1.53;nan
63287;BME280;49410;55.708;37.522;2023-03-01T10:56:49;98845.34;;;-1.36;nan
63287;BME280;49410;55.708;37.522;2023-03-01T10:59:36;98845.72;;;-1.78;nan
63287;BME280;49410;55.708;37.522;2023-03-01T11:04:28;98851.97;;;-1.90;nan
63287;BME280;49410;55.708;37.522;2023-03-01T11:07:00;98845.38;;;-1.73;nan
63287;BME280;49410;55.708;37.522;2023-03-01T11:09:31;98822.78;;;-1.58;nan
63287;BME280;49410;55.708;37.522;2023-03-01T11:12:03;98842.78;;;-1.37;nan
63287;BME280;49410;55.708;37.522;2023-03-01T11:14:36;98826.06;;;-1.41;nan
63287;BME280;49410;55.708;37.522;2023-03-01T11:17:11;98838.09;;;-1.47;nan
63287;BME280;49410;55.708;37.522;2023-03-01T11:19:37;98833.63;;;-1.35;nan
63287;BME280;49410;55.708;37.522;2023-03-01T11:22:07;98833.41;;;-1.32;nan
63287;BME280;49410;55.708;37.522;2023-03-01T11:24:43;98835.13;;;-1.55;nan
63287;BME280;49410;55.708;37.522;2023-03-01T11:27:23;98828.97;;;-1.44;nan
63287;BME280;49410;55.708;37.522;2023-03-01T11:29:57;98838.31;;;-1.50;nan
63287;BME280;49410;55.708;37.522;2023-03-01T11:32:27;98840.28;;;-1.28;nan
63287;BME280;49410;55.708;37.522;2023-03-01T11:35:04;98835.31;;;-1.10;nan
63287;BME280;49410;55.708;37.522;2023-03-01T11:37:35;98840.25;;;-1.03;nan
63287;BME280;49410;55.708;37.522;2023-03-01T11:40:11;98837.13;;;-0.74;nan
63287;BME280;49410;55.708;37.522;2023-03-01T11:45:37;98834.91;;;-1.28;nan
63287;BME280;49410;55.708;37.522;2023-03-01T11:50:54;98836.91;;;-1.18;nan
63287;BME280;49410;55.708;37.522;2023-03-01T11:53:51;98840.59;;;-1.08;nan
63287;BME280;49410;55.708;37.522;2023-03-01T12:16:56;98844.28;;;-1.33;nan
63287;BME280;49410;55.708;37.522;2023-03-01T12:20:11;98864.38;;;-1.39;nan
63287;BME280;49410;55.708;37.522;2023-03-01T12:22:30;98855.69;;;-1.43;nan
63287;BME280;49410;55.708;37.522;2023-03-01T12:28:04;98855.63;;;-1.30;nan
63287;BME280;49410;55.708;37.522;2023-03-01T12:30:45;98849.63;;;-1.33;nan
63287;BME280;49410;55.708;37.522;2023-03-01T12:36:49;98851.91;;;-1.40;nan
63287;BME280;49410;55.708;37.522;2023-03-01T12:39:17;98849.31;;;-1.42;nan
63287;BME280;49410;55.708;37.522;2023-03-01T12:49:53;98848.38;;;-2.02;nan
63287;BME280;49410;55.708;37.522;2023-03-01T12:52:50;98853.22;;;-1.83;nan
63287;BME280;49410;55.708;37.522;2023-03-01T12:55:29;98849.41;;;-1.92;nan
63287;BME280;49410;55.708;37.522;2023-03-01T13:03:02;98856.53;;;-2.16;nan
63287;BME280;49410;55.708;37.522;2023-03-01T13:08:37;98867.72;;;-1.85;nan
63287;BME280;49410;55.708;37.522;2023-03-01T13:11:06;98867.75;;;-1.98;nan
63287;BME280;49410;55.708;37.522;2023-03-01T13:13:36;98824.47;;;-2.05;nan
63287;BME280;49410;55.708;37.522;2023-03-01T13:19:10;98862.44;;;-2.11;nan
63287;BME280;49410;55.708;37.522;2023-03-01T13:21:38;98867.25;;;-2.16;nan
63287;BME280;49410;55.708;37.522;2023-03-01T13:24:04;98866.94;;;-2.25;nan
63287;BME280;49410;55.708;37.522;2023-03-01T13:26:29;98864.28;;;-2.51;nan
63287;BME280;49410;55.708;37.522;2023-03-01T13:28:58;98845.53;;;-2.38;nan
63287;BME280;49410;55.708;37.522;2023-03-01T13:33:52;98852.38;;;-2.21;nan
63287;BME280;49410;55.708;37.522;2023-03-01T13:36:48;98854.09;;;-2.32;nan
63287;BME280;49410;55.708;37.522;2023-03-01T13:41:51;98833.72;;;-2.22;nan
63287;BME280;49410;55.708;37.522;2023-03-01T13:46:57;98832.56;;;-2.31;nan
63287;BME280;49410;55.708;37.522;2023-03-01T13:49:27;98832.25;;;-2.52;nan
63287;BME280;49410;55.708;37.522;2023-03-01T13:51:54;98849.84;;;-2.61;nan
63287;BME280;49410;55.708;37.522;2023-03-01T13:54:28;98843.50;;;-2.73;nan
63287;BME280;49410;55.708;37.522;2023-03-01T13:56:56;98824.31;;;-2.79;nan
63287;BME280;49410;55.708;37.522;2023-03-01T13:59:23;98847.75;;;-2.83;nan
63287;BME280;49410;55.708;37.522;2023-03-01T14:01:56;98847.63;;;-3.07;nan
63287;BME280;49410;55.708;37.522;2023-03-01T14:04:28;98838.88;;;-2.97;nan
63287;BME280;49410;55.708;37.522;2023-03-01T14:07:11;98837.63;;;-2.78;nan
63287;BME280;49410;55.708;37.522;2023-03-01T14:09:42;98824.31;;;-3.05;nan
63287;BME280;49410;55.708;37.522;2023-03-01T14:15:09;98813.50;;;-3.04;nan
63287;BME280;49410;55.708;37.522;2023-03-01T14:17:46;98837.38;;;-3.01;nan
63287;BME280;49410;55.708;37.522;2023-03-01T14:20:20;98833.28;;;-3.06;nan
63287;BME280;49410;55.708;37.522;2023-03-01T14:22:48;98813.59;;;-3.18;nan
63287;BME280;49410;55.708;37.522;2023-03-01T14:25:24;98813.16;;;-3.12;nan
63287;BME280;49410;55.708;37.522;2023-03-01T14:28:13;98821.31;;;-3.01;nan
63287;BME280;49410;55.708;37.522;2023-03-01T14:30:49;98804.63;;;-2.91;nan
63287;BME280;49410;55.708;37.522;2023-03-01T14:33:26;98814.81;;;-2.84;nan
63287;BME280;49410;55.708;37.522;2023-03-01T14:36:00;98809.84;;;-2.90;nan
63287;BME280;49410;55.708;37.522;2023-03-01T14:38:41;98804.31;;;-3.00;nan
63287;BME280;49410;55.708;37.522;2023-03-01T14:41:12;98804.19;;;-2.98;nan
63287;BME280;49410;55.708;37.522;2023-03-01T14:44:05;98802.28;;;-2.96;nan
63287;BME280;49410;55.708;37.522;2023-03-01T14:46:37;98799.03;;;-3.14;nan
63287;BME280;49410;55.708;37.522;2023-03-01T14:51:40;98790.59;;;-3.21;nan
63287;BME280;49410;55.708;37.522;2023-03-01T14:54:37;98802.38;;;-2.98;nan